sensor_id;sensor_type;location;lat;lon;timestamp;P1;durP1;ratioP1;P2;durP2;ratioP2
8716;SDS011;4395;48.554;8.820;2023-12-04T00:01:04;54.42;;;31.35;;
8716;SDS011;4395;48.554;8.820;2023-12-04T00:03:09;31.55;;;20.42;;
8716;SDS011;4395;48.554;8.820;2023-12-04T00:05:12;22.63;;;16.50;;
8716;SDS011;4395;48.554;8.820;2023-12-04T00:07:15;21.80;;;15.55;;
8716;SDS011;4395;48.554;8.820;2023-12-04T00:09:17;19.52;;;14.93;;
8716;SDS011;4395;48.554;8.820;2023-12-04T00:11:20;22.27;;;15.93;;
8716;SDS011;4395;48.554;8.820;2023-12-04T00:13:23;22.38;;;15.48;;
8716;SDS011;4395;48.554;8.820;2023-12-04T00:15:26;20.80;;;15.55;;
8716;SDS011;4395;48.554;8.820;2023-12-04T00:17:29;22.10;;;16.08;;
8716;SDS011;4395;48.554;8.820;2023-12-04T00:19:33;20.35;;;15.10;;
8716;SDS011;4395;48.554;8.820;2023-12-04T00:21:36;22.40;;;15.68;;
8716;SDS011;4395;48.554;8.820;2023-12-04T00:23:39;21.48;;;14.98;;
8716;SDS011;4395;48.554;8.820;2023-12-04T00:25:41;20.52;;;14.77;;
8716;SDS011;4395;48.554;8.820;2023-12-04T00:27:44;18.60;;;14.90;;
8716;SDS011;4395;48.554;8.820;2023-12-04T00:29:47;19.27;;;14.25;;
8716;SDS011;4395;48.554;8.820;2023-12-04T00:31:50;17.52;;;12.93;;
8716;SDS011;4395;48.554;8.820;2023-12-04T00:33:52;16.38;;;12.40;;
8716;SDS011;4395;48.554;8.820;2023-12-04T00:35:56;14.18;;;10.60;;
8716;SDS011;4395;48.554;8.820;2023-12-04T00:37:59;14.90;;;11.02;;
8716;SDS011;4395;48.554;8.820;2023-12-04T00:40:02;14.48;;;10.90;;
8716;SDS011;4395;48.554;8.820;2023-12-04T00:42:05;13.98;;;10.25;;
8716;SDS011;4395;48.554;8.820;2023-12-04T00:44:08;15.63;;;12.13;;
8716;SDS011;4395;48.554;8.820;2023-12-04T00:46:11;14.82;;;11.02;;
8716;SDS011;4395;48.554;8.820;2023-12-04T00:48:14;13.32;;;10.65;;
8716;SDS011;4395;48.554;8.820;2023-12-04T00:50:16;13.73;;;10.45;;
8716;SDS011;4395;48.554;8.820;2023-12-04T00:52:20;14.70;;;11.05;;
8716;SDS011;4395;48.554;8.820;2023-12-04T00:54:23;12.95;;;10.05;;
8716;SDS011;4395;48.554;8.820;2023-12-04T00:56:26;12.40;;;9.70;;
8716;SDS011;4395;48.554;8.820;2023-12-04T00:58:28;12.75;;;10.35;;
8716;SDS011;4395;48.554;8.820;2023-12-04T01:00:30;13.00;;;10.30;;
8716;SDS011;4395;48.554;8.820;2023-12-04T01:02:33;13.73;;;10.25;;
8716;SDS011;4395;48.554;8.820;2023-12-04T01:04:39;13.10;;;10.43;;
8716;SDS011;4395;48.554;8.820;2023-12-04T01:06:42;13.63;;;10.25;;
8716;SDS011;4395;48.554;8.820;2023-12-04T01:08:46;13.88;;;10.40;;
8716;SDS011;4395;48.554;8.820;2023-12-04T01:10:49;12.43;;;9.23;;
8716;SDS011;4395;48.554;8.820;2023-12-04T01:12:52;12.10;;;9.63;;
8716;SDS011;4395;48.554;8.820;2023-12-04T01:14:54;12.10;;;9.85;;
8716;SDS011;4395;48.554;8.820;2023-12-04T01:16:57;13.07;;;10.13;;
8716;SDS011;4395;48.554;8.820;2023-12-04T01:18:59;12.10;;;9.27;;
8716;SDS011;4395;48.554;8.820;2023-12-04T01:21:03;11.50;;;9.00;;
8716;SDS011;4395;48.554;8.820;2023-12-04T01:23:05;13.75;;;10.30;;
8716;SDS011;4395;48.554;8.820;2023-12-04T01:25:10;13.40;;;10.27;;
8716;SDS011;4395;48.554;8.820;2023-12-04T01:27:13;14.27;;;11.23;;
8716;SDS011;4395;48.554;8.820;2023-12-04T01:29:15;18.13;;;13.15;;
8716;SDS011;4395;48.554;8.820;2023-12-04T01:31:17;26.05;;;17.50;;
8716;SDS011;4395;48.554;8.820;2023-12-04T01:33:20;26.80;;;16.05;;
8716;SDS011;4395;48.554;8.820;2023-12-04T01:35:22;20.98;;;14.82;;
8716;SDS011;4395;48.554;8.820;2023-12-04T01:37:25;22.85;;;14.13;;
8716;SDS011;4395;48.554;8.820;2023-12-04T01:39:28;18.88;;;13.60;;
8716;SDS011;4395;48.554;8.820;2023-12-04T01:41:33;19.15;;;13.63;;
8716;SDS011;4395;48.554;8.820;2023-12-04T01:43:36;20.13;;;13.25;;
8716;SDS011;4395;48.554;8.820;2023-12-04T01:45:38;14.65;;;11.02;;
8716;SDS011;4395;48.554;8.820;2023-12-04T01:47:41;14.10;;;10.45;;
8716;SDS011;4395;48.554;8.820;2023-12-04T01:49:47;13.43;;;10.30;;
8716;SDS011;4395;48.554;8.820;2023-12-04T01:51:50;13.57;;;10.43;;
8716;SDS011;4395;48.554;8.820;2023-12-04T01:53:52;11.95;;;9.30;;
8716;SDS011;4395;48.554;8.820;2023-12-04T01:55:55;13.45;;;9.98;;
8716;SDS011;4395;48.554;8.820;2023-12-04T01:57:59;14.30;;;10.55;;
8716;SDS011;4395;48.554;8.820;2023-12-04T02:00:05;13.43;;;10.43;;
8716;SDS011;4395;48.554;8.820;2023-12-04T02:02:12;13.93;;;10.45;;
8716;SDS011;4395;48.554;8.820;2023-12-04T02:04:15;17.20;;;13.10;;
8716;SDS011;4395;48.554;8.820;2023-12-04T02:06:17;21.60;;;15.07;;
8716;SDS011;4395;48.554;8.820;2023-12-04T02:08:21;15.57;;;12.25;;
8716;SDS011;4395;48.554;8.820;2023-12-04T02:10:24;15.43;;;11.50;;
8716;SDS011;4395;48.554;8.820;2023-12-04T02:12:27;15.73;;;11.55;;
8716;SDS011;4395;48.554;8.820;2023-12-04T02:14:31;14.85;;;11.35;;
8716;SDS011;4395;48.554;8.820;2023-12-04T02:16:36;15.48;;;11.05;;
8716;SDS011;4395;48.554;8.820;2023-12-04T02:18:42;13.32;;;10.63;;
8716;SDS011;4395;48.554;8.820;2023-12-04T02:20:46;13.32;;;10.13;;
8716;SDS011;4395;48.554;8.820;2023-12-04T02:22:48;17.02;;;12.93;;
8716;SDS011;4395;48.554;8.820;2023-12-04T02:24:53;14.13;;;11.02;;
8716;SDS011;4395;48.554;8.820;2023-12-04T02:27:02;16.30;;;11.57;;
8716;SDS011;4395;48.554;8.820;2023-12-04T02:29:13;14.88;;;10.93;;
8716;SDS011;4395;48.554;8.820;2023-12-04T02:31:20;19.35;;;12.40;;
8716;SDS011;4395;48.554;8.820;2023-12-04T02:33:26;22.92;;;13.77;;
8716;SDS011;4395;48.554;8.820;2023-12-04T02:35:31;23.38;;;14.15;;
8716;SDS011;4395;48.554;8.820;2023-12-04T02:37:36;15.05;;;11.25;;
8716;SDS011;4395;48.554;8.820;2023-12-04T02:39:40;15.77;;;11.38;;
8716;SDS011;4395;48.554;8.820;2023-12-04T02:41:46;14.52;;;10.75;;
8716;SDS011;4395;48.554;8.820;2023-12-04T02:43:48;13.52;;;10.00;;
8716;SDS011;4395;48.554;8.820;2023-12-04T02:45:51;12.32;;;9.73;;
8716;SDS011;4395;48.554;8.820;2023-12-04T02:47:54;12.98;;;9.68;;
8716;SDS011;4395;48.554;8.820;2023-12-04T02:49:57;11.48;;;8.73;;
8716;SDS011;4395;48.554;8.820;2023-12-04T02:52:00;12.77;;;9.70;;
8716;SDS011;4395;48.554;8.820;2023-12-04T02:54:04;10.23;;;8.07;;
8716;SDS011;4395;48.554;8.820;2023-12-04T02:56:06;10.00;;;8.13;;
8716;SDS011;4395;48.554;8.820;2023-12-04T02:58:11;10.88;;;8.65;;
8716;SDS011;4395;48.554;8.820;2023-12-04T03:00:14;10.82;;;7.97;;
8716;SDS011;4395;48.554;8.820;2023-12-04T03:02:17;12.35;;;8.80;;
8716;SDS011;4395;48.554;8.820;2023-12-04T03:04:20;9.80;;;8.15;;
8716;SDS011;4395;48.554;8.820;2023-12-04T03:06:23;10.40;;;8.30;;
8716;SDS011;4395;48.554;8.820;2023-12-04T03:08:25;11.38;;;8.63;;
8716;SDS011;4395;48.554;8.820;2023-12-04T03:10:28;31.15;;;27.75;;
8716;SDS011;4395;48.554;8.820;2023-12-04T03:12:31;11.10;;;9.18;;
8716;SDS011;4395;48.554;8.820;2023-12-04T03:14:35;14.10;;;9.60;;
8716;SDS011;4395;48.554;8.820;2023-12-04T03:16:38;27.17;;;14.13;;
8716;SDS011;4395;48.554;8.820;2023-12-04T03:18:40;32.45;;;16.45;;
8716;SDS011;4395;48.554;8.820;2023-12-04T03:20:43;26.52;;;13.98;;
8716;SDS011;4395;48.554;8.820;2023-12-04T03:22:46;17.83;;;11.27;;
8716;SDS011;4395;48.554;8.820;2023-12-04T03:24:48;16.20;;;10.00;;
8716;SDS011;4395;48.554;8.820;2023-12-04T03:26:50;16.33;;;10.82;;
8716;SDS011;4395;48.554;8.820;2023-12-04T03:28:53;14.32;;;9.77;;
8716;SDS011;4395;48.554;8.820;2023-12-04T03:30:58;13.15;;;10.23;;
8716;SDS011;4395;48.554;8.820;2023-12-04T03:33:01;12.88;;;9.15;;
8716;SDS011;4395;48.554;8.820;2023-12-04T03:35:04;12.90;;;9.40;;
8716;SDS011;4395;48.554;8.820;2023-12-04T03:37:07;12.30;;;9.88;;
8716;SDS011;4395;48.554;8.820;2023-12-04T03:39:10;13.25;;;9.65;;
8716;SDS011;4395;48.554;8.820;2023-12-04T03:41:13;10.43;;;8.40;;
8716;SDS011;4395;48.554;8.820;2023-12-04T03:43:16;10.75;;;8.43;;
8716;SDS011;4395;48.554;8.820;2023-12-04T03:45:19;10.73;;;8.60;;
8716;SDS011;4395;48.554;8.820;2023-12-04T03:47:23;10.57;;;8.55;;
8716;SDS011;4395;48.554;8.820;2023-12-04T03:49:26;10.75;;;8.60;;
8716;SDS011;4395;48.554;8.820;2023-12-04T03:51:29;15.90;;;10.43;;
8716;SDS011;4395;48.554;8.820;2023-12-04T03:53:31;13.65;;;10.30;;
8716;SDS011;4395;48.554;8.820;2023-12-04T03:55:34;13.00;;;9.48;;
8716;SDS011;4395;48.554;8.820;2023-12-04T03:57:36;11.82;;;9.23;;
8716;SDS011;4395;48.554;8.820;2023-12-04T03:59:39;12.30;;;9.63;;
8716;SDS011;4395;48.554;8.820;2023-12-04T04:01:42;12.75;;;9.55;;
8716;SDS011;4395;48.554;8.820;2023-12-04T04:03:46;11.35;;;9.18;;
8716;SDS011;4395;48.554;8.820;2023-12-04T04:05:49;12.10;;;9.63;;
8716;SDS011;4395;48.554;8.820;2023-12-04T04:07:52;11.30;;;9.50;;
8716;SDS011;4395;48.554;8.820;2023-12-04T04:09:55;9.77;;;7.60;;
8716;SDS011;4395;48.554;8.820;2023-12-04T04:11:58;9.68;;;8.05;;
8716;SDS011;4395;48.554;8.820;2023-12-04T04:14:00;9.32;;;7.38;;
8716;SDS011;4395;48.554;8.820;2023-12-04T04:16:03;11.63;;;7.95;;
8716;SDS011;4395;48.554;8.820;2023-12-04T04:18:06;17.13;;;10.07;;
8716;SDS011;4395;48.554;8.820;2023-12-04T04:20:11;16.83;;;10.32;;
8716;SDS011;4395;48.554;8.820;2023-12-04T04:22:15;16.60;;;10.35;;
8716;SDS011;4395;48.554;8.820;2023-12-04T04:24:19;17.67;;;10.52;;
8716;SDS011;4395;48.554;8.820;2023-12-04T04:26:22;12.63;;;9.40;;
8716;SDS011;4395;48.554;8.820;2023-12-04T04:28:25;15.15;;;9.88;;
8716;SDS011;4395;48.554;8.820;2023-12-04T04:30:28;12.75;;;9.18;;
8716;SDS011;4395;48.554;8.820;2023-12-04T04:32:31;15.63;;;10.38;;
8716;SDS011;4395;48.554;8.820;2023-12-04T04:34:33;12.85;;;8.65;;
8716;SDS011;4395;48.554;8.820;2023-12-04T04:36:37;11.10;;;8.15;;
8716;SDS011;4395;48.554;8.820;2023-12-04T04:38:40;12.20;;;8.32;;
8716;SDS011;4395;48.554;8.820;2023-12-04T04:40:43;12.00;;;8.38;;
8716;SDS011;4395;48.554;8.820;2023-12-04T04:42:46;15.07;;;10.02;;
8716;SDS011;4395;48.554;8.820;2023-12-04T04:44:49;14.30;;;9.52;;
8716;SDS011;4395;48.554;8.820;2023-12-04T04:46:52;15.15;;;10.13;;
8716;SDS011;4395;48.554;8.820;2023-12-04T04:48:55;18.13;;;11.40;;
8716;SDS011;4395;48.554;8.820;2023-12-04T04:50:58;24.05;;;12.48;;
8716;SDS011;4395;48.554;8.820;2023-12-04T04:53:02;23.20;;;12.73;;
8716;SDS011;4395;48.554;8.820;2023-12-04T04:55:05;27.50;;;13.48;;
8716;SDS011;4395;48.554;8.820;2023-12-04T04:57:07;26.17;;;12.27;;
8716;SDS011;4395;48.554;8.820;2023-12-04T04:59:10;22.08;;;11.80;;
8716;SDS011;4395;48.554;8.820;2023-12-04T05:01:13;22.85;;;13.52;;
8716;SDS011;4395;48.554;8.820;2023-12-04T05:03:17;15.38;;;10.32;;
8716;SDS011;4395;48.554;8.820;2023-12-04T05:05:22;14.93;;;10.43;;
8716;SDS011;4395;48.554;8.820;2023-12-04T05:07:24;18.90;;;13.35;;
8716;SDS011;4395;48.554;8.820;2023-12-04T05:09:28;16.90;;;11.68;;
8716;SDS011;4395;48.554;8.820;2023-12-04T05:11:32;16.40;;;11.60;;
8716;SDS011;4395;48.554;8.820;2023-12-04T05:13:34;17.20;;;10.70;;
8716;SDS011;4395;48.554;8.820;2023-12-04T05:15:37;22.30;;;12.30;;
8716;SDS011;4395;48.554;8.820;2023-12-04T05:17:40;15.80;;;10.45;;
8716;SDS011;4395;48.554;8.820;2023-12-04T05:19:43;15.55;;;11.15;;
8716;SDS011;4395;48.554;8.820;2023-12-04T05:21:46;15.88;;;12.18;;
8716;SDS011;4395;48.554;8.820;2023-12-04T05:23:48;19.88;;;14.63;;
8716;SDS011;4395;48.554;8.820;2023-12-04T05:25:52;20.92;;;14.18;;
8716;SDS011;4395;48.554;8.820;2023-12-04T05:27:55;17.45;;;12.48;;
8716;SDS011;4395;48.554;8.820;2023-12-04T05:29:58;14.10;;;10.63;;
8716;SDS011;4395;48.554;8.820;2023-12-04T05:32:01;14.80;;;11.70;;
8716;SDS011;4395;48.554;8.820;2023-12-04T05:34:04;14.07;;;10.30;;
8716;SDS011;4395;48.554;8.820;2023-12-04T05:36:07;14.00;;;10.27;;
8716;SDS011;4395;48.554;8.820;2023-12-04T05:38:10;14.23;;;10.85;;
8716;SDS011;4395;48.554;8.820;2023-12-04T05:40:13;15.65;;;11.27;;
8716;SDS011;4395;48.554;8.820;2023-12-04T05:42:18;15.20;;;11.77;;
8716;SDS011;4395;48.554;8.820;2023-12-04T05:44:21;14.80;;;11.45;;
8716;SDS011;4395;48.554;8.820;2023-12-04T05:46:24;16.38;;;11.90;;
8716;SDS011;4395;48.554;8.820;2023-12-04T05:48:27;16.05;;;11.63;;
8716;SDS011;4395;48.554;8.820;2023-12-04T05:50:29;16.20;;;11.48;;
8716;SDS011;4395;48.554;8.820;2023-12-04T05:52:32;15.82;;;12.23;;
8716;SDS011;4395;48.554;8.820;2023-12-04T05:54:35;13.63;;;10.40;;
8716;SDS011;4395;48.554;8.820;2023-12-04T05:56:38;12.50;;;9.57;;
8716;SDS011;4395;48.554;8.820;2023-12-04T05:58:42;15.02;;;11.90;;
8716;SDS011;4395;48.554;8.820;2023-12-04T06:00:45;11.35;;;9.95;;
8716;SDS011;4395;48.554;8.820;2023-12-04T06:02:48;12.57;;;9.45;;
8716;SDS011;4395;48.554;8.820;2023-12-04T06:04:51;11.65;;;9.57;;
8716;SDS011;4395;48.554;8.820;2023-12-04T06:06:53;11.38;;;9.70;;
8716;SDS011;4395;48.554;8.820;2023-12-04T06:08:56;11.48;;;8.88;;
8716;SDS011;4395;48.554;8.820;2023-12-04T06:10:59;9.88;;;8.38;;
8716;SDS011;4395;48.554;8.820;2023-12-04T06:13:02;9.82;;;8.10;;
8716;SDS011;4395;48.554;8.820;2023-12-04T06:15:07;10.75;;;8.65;;
8716;SDS011;4395;48.554;8.820;2023-12-04T06:17:09;11.75;;;9.52;;
8716;SDS011;4395;48.554;8.820;2023-12-04T06:19:12;10.50;;;8.90;;
8716;SDS011;4395;48.554;8.820;2023-12-04T06:21:15;10.48;;;8.05;;
8716;SDS011;4395;48.554;8.820;2023-12-04T06:23:18;9.43;;;8.02;;
8716;SDS011;4395;48.554;8.820;2023-12-04T06:25:22;10.07;;;8.07;;
8716;SDS011;4395;48.554;8.820;2023-12-04T06:27:25;10.40;;;8.50;;
8716;SDS011;4395;48.554;8.820;2023-12-04T06:29:28;10.43;;;8.45;;
8716;SDS011;4395;48.554;8.820;2023-12-04T06:31:33;11.15;;;8.45;;
8716;SDS011;4395;48.554;8.820;2023-12-04T06:33:37;10.30;;;7.93;;
8716;SDS011;4395;48.554;8.820;2023-12-04T06:35:40;9.25;;;7.28;;
8716;SDS011;4395;48.554;8.820;2023-12-04T06:37:43;9.00;;;7.85;;
8716;SDS011;4395;48.554;8.820;2023-12-04T06:39:48;9.93;;;8.07;;
8716;SDS011;4395;48.554;8.820;2023-12-04T06:41:55;9.50;;;7.65;;
8716;SDS011;4395;48.554;8.820;2023-12-04T06:43:58;8.90;;;7.57;;
8716;SDS011;4395;48.554;8.820;2023-12-04T06:46:01;12.98;;;8.55;;
8716;SDS011;4395;48.554;8.820;2023-12-04T06:48:07;9.32;;;8.32;;
8716;SDS011;4395;48.554;8.820;2023-12-04T06:50:12;10.35;;;8.88;;
8716;SDS011;4395;48.554;8.820;2023-12-04T06:52:14;13.73;;;11.55;;
8716;SDS011;4395;48.554;8.820;2023-12-04T06:54:17;22.10;;;17.70;;
8716;SDS011;4395;48.554;8.820;2023-12-04T06:56:20;17.60;;;14.68;;
8716;SDS011;4395;48.554;8.820;2023-12-04T06:58:22;13.10;;;9.75;;
8716;SDS011;4395;48.554;8.820;2023-12-04T07:00:25;14.00;;;12.50;;
8716;SDS011;4395;48.554;8.820;2023-12-04T07:02:28;13.23;;;10.45;;
8716;SDS011;4395;48.554;8.820;2023-12-04T07:04:32;16.50;;;13.82;;
8716;SDS011;4395;48.554;8.820;2023-12-04T07:06:35;19.20;;;15.20;;
8716;SDS011;4395;48.554;8.820;2023-12-04T07:08:37;16.52;;;13.05;;
8716;SDS011;4395;48.554;8.820;2023-12-04T07:10:40;14.10;;;11.82;;
8716;SDS011;4395;48.554;8.820;2023-12-04T07:12:43;19.42;;;15.27;;
8716;SDS011;4395;48.554;8.820;2023-12-04T07:14:46;34.20;;;27.55;;
8716;SDS011;4395;48.554;8.820;2023-12-04T07:16:49;18.52;;;15.68;;
8716;SDS011;4395;48.554;8.820;2023-12-04T07:18:52;16.85;;;13.85;;
8716;SDS011;4395;48.554;8.820;2023-12-04T07:20:56;13.15;;;10.65;;
8716;SDS011;4395;48.554;8.820;2023-12-04T07:22:59;13.00;;;9.98;;
8716;SDS011;4395;48.554;8.820;2023-12-04T07:25:02;13.88;;;11.32;;
8716;SDS011;4395;48.554;8.820;2023-12-04T07:27:05;15.18;;;10.88;;
8716;SDS011;4395;48.554;8.820;2023-12-04T07:29:08;12.35;;;9.60;;
8716;SDS011;4395;48.554;8.820;2023-12-04T07:31:11;13.23;;;9.65;;
8716;SDS011;4395;48.554;8.820;2023-12-04T07:33:14;12.98;;;9.90;;
8716;SDS011;4395;48.554;8.820;2023-12-04T07:35:17;11.50;;;9.07;;
8716;SDS011;4395;48.554;8.820;2023-12-04T07:37:21;13.00;;;9.65;;
8716;SDS011;4395;48.554;8.820;2023-12-04T07:39:23;13.80;;;10.32;;
8716;SDS011;4395;48.554;8.820;2023-12-04T07:41:26;13.95;;;10.18;;
8716;SDS011;4395;48.554;8.820;2023-12-04T07:43:29;14.30;;;10.88;;
8716;SDS011;4395;48.554;8.820;2023-12-04T07:45:32;15.80;;;10.63;;
8716;SDS011;4395;48.554;8.820;2023-12-04T07:47:36;13.52;;;10.70;;
8716;SDS011;4395;48.554;8.820;2023-12-04T07:49:38;14.40;;;11.38;;
8716;SDS011;4395;48.554;8.820;2023-12-04T07:51:41;14.68;;;11.13;;
8716;SDS011;4395;48.554;8.820;2023-12-04T07:53:46;17.33;;;12.43;;
8716;SDS011;4395;48.554;8.820;2023-12-04T07:55:49;16.60;;;12.77;;
8716;SDS011;4395;48.554;8.820;2023-12-04T07:57:52;15.63;;;12.35;;
8716;SDS011;4395;48.554;8.820;2023-12-04T07:59:55;13.55;;;11.05;;
8716;SDS011;4395;48.554;8.820;2023-12-04T08:01:58;16.30;;;11.85;;
8716;SDS011;4395;48.554;8.820;2023-12-04T08:04:01;15.55;;;11.70;;
8716;SDS011;4395;48.554;8.820;2023-12-04T08:06:04;15.73;;;11.65;;
8716;SDS011;4395;48.554;8.820;2023-12-04T08:08:08;15.75;;;12.23;;
8716;SDS011;4395;48.554;8.820;2023-12-04T08:10:12;14.13;;;11.35;;
8716;SDS011;4395;48.554;8.820;2023-12-04T08:12:15;14.05;;;10.73;;
8716;SDS011;4395;48.554;8.820;2023-12-04T08:14:18;13.63;;;10.80;;
8716;SDS011;4395;48.554;8.820;2023-12-04T08:16:21;14.02;;;11.18;;
8716;SDS011;4395;48.554;8.820;2023-12-04T08:18:23;14.05;;;11.23;;
8716;SDS011;4395;48.554;8.820;2023-12-04T08:20:26;13.45;;;10.65;;
8716;SDS011;4395;48.554;8.820;2023-12-04T08:22:40;13.82;;;9.43;;
8716;SDS011;4395;48.554;8.820;2023-12-04T08:24:42;13.90;;;10.07;;
8716;SDS011;4395;48.554;8.820;2023-12-04T08:26:47;12.05;;;9.10;;
8716;SDS011;4395;48.554;8.820;2023-12-04T08:28:50;12.43;;;9.48;;
8716;SDS011;4395;48.554;8.820;2023-12-04T08:30:52;10.70;;;7.90;;
8716;SDS011;4395;48.554;8.820;2023-12-04T08:32:55;11.05;;;8.88;;
8716;SDS011;4395;48.554;8.820;2023-12-04T08:34:58;10.40;;;8.93;;
8716;SDS011;4395;48.554;8.820;2023-12-04T08:37:01;10.57;;;8.38;;
8716;SDS011;4395;48.554;8.820;2023-12-04T08:39:04;10.63;;;8.95;;
8716;SDS011;4395;48.554;8.820;2023-12-04T08:41:07;11.27;;;9.48;;
8716;SDS011;4395;48.554;8.820;2023-12-04T08:43:11;11.93;;;9.73;;
8716;SDS011;4395;48.554;8.820;2023-12-04T08:45:14;12.98;;;9.95;;
8716;SDS011;4395;48.554;8.820;2023-12-04T08:47:20;11.48;;;9.48;;
8716;SDS011;4395;48.554;8.820;2023-12-04T08:49:22;11.65;;;9.50;;
8716;SDS011;4395;48.554;8.820;2023-12-04T08:51:36;10.98;;;9.25;;
8716;SDS011;4395;48.554;8.820;2023-12-04T08:53:38;12.25;;;9.55;;
8716;SDS011;4395;48.554;8.820;2023-12-04T08:55:41;11.23;;;9.40;;
8716;SDS011;4395;48.554;8.820;2023-12-04T08:57:44;10.23;;;8.98;;
8716;SDS011;4395;48.554;8.820;2023-12-04T08:59:48;12.10;;;9.65;;
8716;SDS011;4395;48.554;8.820;2023-12-04T09:01:51;14.55;;;11.65;;
8716;SDS011;4395;48.554;8.820;2023-12-04T09:03:54;13.68;;;11.57;;
8716;SDS011;4395;48.554;8.820;2023-12-04T09:05:58;18.65;;;13.55;;
8716;SDS011;4395;48.554;8.820;2023-12-04T09:08:01;17.05;;;12.07;;
8716;SDS011;4395;48.554;8.820;2023-12-04T09:10:07;14.57;;;11.88;;
8716;SDS011;4395;48.554;8.820;2023-12-04T09:12:21;13.98;;;11.82;;
8716;SDS011;4395;48.554;8.820;2023-12-04T09:14:24;14.88;;;11.23;;
8716;SDS011;4395;48.554;8.820;2023-12-04T09:16:27;13.50;;;10.75;;
8716;SDS011;4395;48.554;8.820;2023-12-04T09:18:30;13.75;;;10.95;;
8716;SDS011;4395;48.554;8.820;2023-12-04T09:20:33;14.13;;;10.60;;
8716;SDS011;4395;48.554;8.820;2023-12-04T09:22:36;12.05;;;10.35;;
8716;SDS011;4395;48.554;8.820;2023-12-04T09:24:53;14.45;;;11.65;;
8716;SDS011;4395;48.554;8.820;2023-12-04T09:26:56;13.05;;;10.85;;
8716;SDS011;4395;48.554;8.820;2023-12-04T09:28:59;11.85;;;9.65;;
8716;SDS011;4395;48.554;8.820;2023-12-04T09:31:01;10.57;;;9.48;;
8716;SDS011;4395;48.554;8.820;2023-12-04T09:33:06;11.60;;;9.30;;
8716;SDS011;4395;48.554;8.820;2023-12-04T09:35:09;10.52;;;9.18;;
8716;SDS011;4395;48.554;8.820;2023-12-04T09:37:11;11.00;;;8.88;;
8716;SDS011;4395;48.554;8.820;2023-12-04T09:39:17;12.73;;;10.25;;
8716;SDS011;4395;48.554;8.820;2023-12-04T09:41:19;11.60;;;9.35;;
8716;SDS011;4395;48.554;8.820;2023-12-04T09:43:23;13.10;;;9.38;;
8716;SDS011;4395;48.554;8.820;2023-12-04T09:45:30;11.35;;;8.40;;
8716;SDS011;4395;48.554;8.820;2023-12-04T09:47:35;10.40;;;8.60;;
8716;SDS011;4395;48.554;8.820;2023-12-04T09:49:39;10.90;;;8.68;;
8716;SDS011;4395;48.554;8.820;2023-12-04T09:51:42;10.60;;;8.60;;
8716;SDS011;4395;48.554;8.820;2023-12-04T09:53:46;9.68;;;8.27;;
8716;SDS011;4395;48.554;8.820;2023-12-04T09:55:49;11.27;;;8.45;;
8716;SDS011;4395;48.554;8.820;2023-12-04T09:57:52;10.82;;;8.60;;
8716;SDS011;4395;48.554;8.820;2023-12-04T09:59:56;10.25;;;7.97;;
8716;SDS011;4395;48.554;8.820;2023-12-04T10:02:01;9.45;;;8.20;;
8716;SDS011;4395;48.554;8.820;2023-12-04T10:04:04;11.00;;;8.85;;
8716;SDS011;4395;48.554;8.820;2023-12-04T10:06:09;10.07;;;8.20;;
8716;SDS011;4395;48.554;8.820;2023-12-04T10:08:14;9.77;;;8.40;;
8716;SDS011;4395;48.554;8.820;2023-12-04T10:10:18;10.15;;;8.18;;
8716;SDS011;4395;48.554;8.820;2023-12-04T10:12:21;9.77;;;7.82;;
8716;SDS011;4395;48.554;8.820;2023-12-04T10:14:24;10.95;;;8.30;;
8716;SDS011;4395;48.554;8.820;2023-12-04T10:16:31;9.30;;;7.70;;
8716;SDS011;4395;48.554;8.820;2023-12-04T10:18:35;10.55;;;8.23;;
8716;SDS011;4395;48.554;8.820;2023-12-04T10:20:39;10.82;;;8.85;;
8716;SDS011;4395;48.554;8.820;2023-12-04T10:22:56;10.43;;;8.50;;
8716;SDS011;4395;48.554;8.820;2023-12-04T10:25:00;9.82;;;8.25;;
8716;SDS011;4395;48.554;8.820;2023-12-04T10:27:16;10.25;;;7.90;;
8716;SDS011;4395;48.554;8.820;2023-12-04T10:29:19;8.98;;;7.65;;
8716;SDS011;4395;48.554;8.820;2023-12-04T10:31:22;9.23;;;7.25;;
8716;SDS011;4395;48.554;8.820;2023-12-04T10:33:26;10.13;;;7.90;;
8716;SDS011;4395;48.554;8.820;2023-12-04T10:35:33;10.63;;;8.27;;
8716;SDS011;4395;48.554;8.820;2023-12-04T10:37:37;10.43;;;8.60;;
8716;SDS011;4395;48.554;8.820;2023-12-04T10:39:48;10.82;;;9.18;;
8716;SDS011;4395;48.554;8.820;2023-12-04T10:41:59;10.82;;;8.65;;
8716;SDS011;4395;48.554;8.820;2023-12-04T10:44:03;11.63;;;9.40;;
8716;SDS011;4395;48.554;8.820;2023-12-04T10:46:11;10.85;;;8.65;;
8716;SDS011;4395;48.554;8.820;2023-12-04T10:48:15;9.85;;;8.40;;
8716;SDS011;4395;48.554;8.820;2023-12-04T10:50:19;10.00;;;8.18;;
8716;SDS011;4395;48.554;8.820;2023-12-04T10:52:23;10.48;;;7.90;;
8716;SDS011;4395;48.554;8.820;2023-12-04T10:54:27;11.95;;;9.30;;
8716;SDS011;4395;48.554;8.820;2023-12-04T10:56:33;11.77;;;8.55;;
8716;SDS011;4395;48.554;8.820;2023-12-04T10:58:39;11.10;;;8.70;;
8716;SDS011;4395;48.554;8.820;2023-12-04T11:00:44;12.07;;;9.02;;
8716;SDS011;4395;48.554;8.820;2023-12-04T11:02:48;11.18;;;8.80;;
8716;SDS011;4395;48.554;8.820;2023-12-04T11:04:54;11.25;;;9.20;;
8716;SDS011;4395;48.554;8.820;2023-12-04T11:07:01;10.73;;;8.32;;
8716;SDS011;4395;48.554;8.820;2023-12-04T11:09:06;11.75;;;8.50;;
8716;SDS011;4395;48.554;8.820;2023-12-04T11:11:12;10.25;;;8.25;;
8716;SDS011;4395;48.554;8.820;2023-12-04T11:13:21;11.85;;;8.63;;
8716;SDS011;4395;48.554;8.820;2023-12-04T11:15:26;10.15;;;8.60;;
8716;SDS011;4395;48.554;8.820;2023-12-04T11:17:34;11.00;;;8.70;;
8716;SDS011;4395;48.554;8.820;2023-12-04T11:19:40;9.57;;;8.05;;
8716;SDS011;4395;48.554;8.820;2023-12-04T11:21:52;10.57;;;8.27;;
8716;SDS011;4395;48.554;8.820;2023-12-04T11:23:59;11.80;;;8.95;;
8716;SDS011;4395;48.554;8.820;2023-12-04T11:26:03;9.98;;;8.07;;
8716;SDS011;4395;48.554;8.820;2023-12-04T11:28:07;11.38;;;9.40;;
8716;SDS011;4395;48.554;8.820;2023-12-04T11:30:12;13.07;;;9.32;;
8716;SDS011;4395;48.554;8.820;2023-12-04T11:32:17;11.85;;;9.75;;
8716;SDS011;4395;48.554;8.820;2023-12-04T11:34:21;12.65;;;9.15;;
8716;SDS011;4395;48.554;8.820;2023-12-04T11:36:24;10.77;;;8.95;;
8716;SDS011;4395;48.554;8.820;2023-12-04T11:38:27;13.85;;;11.10;;
8716;SDS011;4395;48.554;8.820;2023-12-04T11:40:29;16.02;;;11.48;;
8716;SDS011;4395;48.554;8.820;2023-12-04T11:42:32;13.18;;;10.57;;
8716;SDS011;4395;48.554;8.820;2023-12-04T11:44:35;14.65;;;11.80;;
8716;SDS011;4395;48.554;8.820;2023-12-04T11:46:38;13.88;;;11.00;;
8716;SDS011;4395;48.554;8.820;2023-12-04T11:48:41;17.40;;;13.25;;
8716;SDS011;4395;48.554;8.820;2023-12-04T11:50:44;16.10;;;13.20;;
8716;SDS011;4395;48.554;8.820;2023-12-04T11:52:47;14.13;;;11.60;;
8716;SDS011;4395;48.554;8.820;2023-12-04T11:54:56;20.55;;;14.02;;
8716;SDS011;4395;48.554;8.820;2023-12-04T11:59:23;13.50;;;10.93;;
8716;SDS011;4395;48.554;8.820;2023-12-04T12:01:26;14.02;;;11.48;;
8716;SDS011;4395;48.554;8.820;2023-12-04T12:03:31;13.90;;;11.88;;
8716;SDS011;4395;48.554;8.820;2023-12-04T12:05:35;13.10;;;10.95;;
8716;SDS011;4395;48.554;8.820;2023-12-04T12:07:40;13.75;;;10.90;;
8716;SDS011;4395;48.554;8.820;2023-12-04T12:09:43;14.43;;;11.45;;
8716;SDS011;4395;48.554;8.820;2023-12-04T12:11:46;15.02;;;11.57;;
8716;SDS011;4395;48.554;8.820;2023-12-04T12:13:49;14.85;;;12.02;;
8716;SDS011;4395;48.554;8.820;2023-12-04T12:15:52;16.73;;;12.48;;
8716;SDS011;4395;48.554;8.820;2023-12-04T12:17:55;16.58;;;11.27;;
8716;SDS011;4395;48.554;8.820;2023-12-04T12:19:59;14.45;;;10.98;;
8716;SDS011;4395;48.554;8.820;2023-12-04T12:22:01;14.52;;;11.43;;
8716;SDS011;4395;48.554;8.820;2023-12-04T12:24:06;13.88;;;9.70;;
8716;SDS011;4395;48.554;8.820;2023-12-04T12:26:09;12.18;;;9.88;;
8716;SDS011;4395;48.554;8.820;2023-12-04T12:28:12;11.63;;;8.95;;
8716;SDS011;4395;48.554;8.820;2023-12-04T12:30:15;11.77;;;8.57;;
8716;SDS011;4395;48.554;8.820;2023-12-04T12:32:18;12.77;;;9.73;;
8716;SDS011;4395;48.554;8.820;2023-12-04T12:34:20;13.18;;;10.00;;